sensor_id;sensor_type;location;lat;lon;timestamp;P1;durP1;ratioP1;P2;durP2;ratioP2
72437;SDS011;60444;43.534;-5.674;2023-04-03T00:01:22;3.80;;;0.97;;
72437;SDS011;60444;43.534;-5.674;2023-04-03T00:03:48;5.07;;;1.27;;
72437;SDS011;60444;43.534;-5.674;2023-04-03T00:06:14;5.72;;;1.05;;
72437;SDS011;60444;43.534;-5.674;2023-04-03T00:08:40;6.83;;;1.00;;
72437;SDS011;60444;43.534;-5.674;2023-04-03T00:11:06;5.32;;;1.05;;
72437;SDS011;60444;43.534;-5.674;2023-04-03T00:13:32;5.70;;;0.95;;
72437;SDS011;60444;43.534;-5.674;2023-04-03T00:15:58;10.85;;;3.25;;
72437;SDS011;60444;43.534;-5.674;2023-04-03T00:18:28;5.53;;;0.90;;
72437;SDS011;60444;43.534;-5.674;2023-04-03T00:20:54;5.13;;;0.90;;
72437;SDS011;60444;43.534;-5.674;2023-04-03T00:23:20;5.05;;;0.90;;
72437;SDS011;60444;43.534;-5.674;2023-04-03T00:25:45;5.37;;;1.17;;
72437;SDS011;60444;43.534;-5.674;2023-04-03T00:28:11;4.88;;;0.90;;
72437;SDS011;60444;43.534;-5.674;2023-04-03T00:30:36;7.20;;;1.27;;
72437;SDS011;60444;43.534;-5.674;2023-04-03T00:33:02;5.63;;;0.90;;
72437;SDS011;60444;43.534;-5.674;2023-04-03T00:35:28;5.50;;;0.80;;
72437;SDS011;60444;43.534;-5.674;2023-04-03T00:37:54;9.90;;;1.33;;
72437;SDS011;60444;43.534;-5.674;2023-04-03T00:40:21;6.03;;;1.00;;
72437;SDS011;60444;43.534;-5.674;2023-04-03T00:42:57;8.48;;;1.42;;
72437;SDS011;60444;43.534;-5.674;2023-04-03T00:45:25;4.88;;;0.98;;
72437;SDS011;60444;43.534;-5.674;2023-04-03T00:47:54;5.22;;;1.10;;
72437;SDS011;60444;43.534;-5.674;2023-04-03T00:50:21;4.67;;;0.77;;
72437;SDS011;60444;43.534;-5.674;2023-04-03T00:52:47;3.85;;;0.88;;
72437;SDS011;60444;43.534;-5.674;2023-04-03T00:55:14;2.78;;;0.80;;
72437;SDS011;60444;43.534;-5.674;2023-04-03T00:57:41;4.32;;;1.00;;
72437;SDS011;60444;43.534;-5.674;2023-04-03T01:00:09;3.38;;;0.68;;
72437;SDS011;60444;43.534;-5.674;2023-04-03T01:02:37;4.70;;;0.93;;
72437;SDS011;60444;43.534;-5.674;2023-04-03T01:05:05;3.67;;;0.60;;
72437;SDS011;60444;43.534;-5.674;2023-04-03T01:07:31;3.38;;;0.70;;
72437;SDS011;60444;43.534;-5.674;2023-04-03T01:10:01;5.88;;;0.88;;
72437;SDS011;60444;43.534;-5.674;2023-04-03T01:12:30;5.07;;;0.80;;
72437;SDS011;60444;43.534;-5.674;2023-04-03T01:15:01;5.93;;;0.80;;
72437;SDS011;60444;43.534;-5.674;2023-04-03T01:17:51;5.43;;;1.00;;
72437;SDS011;60444;43.534;-5.674;2023-04-03T01:25:34;5.63;;;1.00;;
72437;SDS011;60444;43.534;-5.674;2023-04-03T01:28:03;4.20;;;0.68;;
72437;SDS011;60444;43.534;-5.674;2023-04-03T01:30:35;5.03;;;1.02;;
72437;SDS011;60444;43.534;-5.674;2023-04-03T01:33:06;6.68;;;0.90;;
72437;SDS011;60444;43.534;-5.674;2023-04-03T01:35:31;2.70;;;0.70;;
72437;SDS011;60444;43.534;-5.674;2023-04-03T01:37:57;5.17;;;0.80;;
72437;SDS011;60444;43.534;-5.674;2023-04-03T01:40:22;5.80;;;1.00;;
72437;SDS011;60444;43.534;-5.674;2023-04-03T01:42:48;4.50;;;0.70;;
72437;SDS011;60444;43.534;-5.674;2023-04-03T01:45:14;4.53;;;0.80;;
72437;SDS011;60444;43.534;-5.674;2023-04-03T01:47:40;6.13;;;0.80;;
72437;SDS011;60444;43.534;-5.674;2023-04-03T01:50:05;5.03;;;0.82;;
72437;SDS011;60444;43.534;-5.674;2023-04-03T01:52:31;4.53;;;0.63;;
72437;SDS011;60444;43.534;-5.674;2023-04-03T01:54:56;5.97;;;1.00;;
72437;SDS011;60444;43.534;-5.674;2023-04-03T01:57:22;5.47;;;1.00;;
72437;SDS011;60444;43.534;-5.674;2023-04-03T01:59:47;5.20;;;0.80;;
72437;SDS011;60444;43.534;-5.674;2023-04-03T02:02:13;4.73;;;1.27;;
72437;SDS011;60444;43.534;-5.674;2023-04-03T02:04:39;4.25;;;1.10;;
72437;SDS011;60444;43.534;-5.674;2023-04-03T02:07:05;5.63;;;1.58;;
72437;SDS011;60444;43.534;-5.674;2023-04-03T02:09:31;4.43;;;1.00;;
72437;SDS011;60444;43.534;-5.674;2023-04-03T02:11:57;2.90;;;0.80;;
72437;SDS011;60444;43.534;-5.674;2023-04-03T02:14:24;5.27;;;1.03;;
72437;SDS011;60444;43.534;-5.674;2023-04-03T02:16:52;4.20;;;0.85;;
72437;SDS011;60444;43.534;-5.674;2023-04-03T02:19:18;4.47;;;1.00;;
72437;SDS011;60444;43.534;-5.674;2023-04-03T02:21:43;6.10;;;1.77;;
72437;SDS011;60444;43.534;-5.674;2023-04-03T02:24:09;7.20;;;1.13;;
72437;SDS011;60444;43.534;-5.674;2023-04-03T02:26:34;5.30;;;1.00;;
72437;SDS011;60444;43.534;-5.674;2023-04-03T02:29:00;6.87;;;1.00;;
72437;SDS011;60444;43.534;-5.674;2023-04-03T02:31:25;5.87;;;1.10;;
72437;SDS011;60444;43.534;-5.674;2023-04-03T02:33:51;4.47;;;0.88;;
72437;SDS011;60444;43.534;-5.674;2023-04-03T02:36:16;7.30;;;1.53;;
72437;SDS011;60444;43.534;-5.674;2023-04-03T02:38:42;5.95;;;1.10;;
72437;SDS011;60444;43.534;-5.674;2023-04-03T02:41:09;4.13;;;0.67;;
72437;SDS011;60444;43.534;-5.674;2023-04-03T02:43:36;4.28;;;0.70;;
72437;SDS011;60444;43.534;-5.674;2023-04-03T02:46:02;4.57;;;0.80;;
72437;SDS011;60444;43.534;-5.674;2023-04-03T02:48:28;4.90;;;0.80;;
72437;SDS011;60444;43.534;-5.674;2023-04-03T02:50:54;5.25;;;0.90;;
72437;SDS011;60444;43.534;-5.674;2023-04-03T02:53:19;7.18;;;0.95;;
72437;SDS011;60444;43.534;-5.674;2023-04-03T02:55:45;5.93;;;0.90;;
72437;SDS011;60444;43.534;-5.674;2023-04-03T02:58:11;3.57;;;0.83;;
72437;SDS011;60444;43.534;-5.674;2023-04-03T03:00:36;3.95;;;0.80;;
72437;SDS011;60444;43.534;-5.674;2023-04-03T03:03:02;4.43;;;0.80;;
72437;SDS011;60444;43.534;-5.674;2023-04-03T03:05:28;4.03;;;0.83;;
72437;SDS011;60444;43.534;-5.674;2023-04-03T03:07:54;5.50;;;1.00;;
72437;SDS011;60444;43.534;-5.674;2023-04-03T03:10:20;4.90;;;0.68;;
72437;SDS011;60444;43.534;-5.674;2023-04-03T03:12:46;4.18;;;0.50;;
72437;SDS011;60444;43.534;-5.674;2023-04-03T03:15:12;4.83;;;1.00;;
72437;SDS011;60444;43.534;-5.674;2023-04-03T03:17:38;4.43;;;0.67;;
72437;SDS011;60444;43.534;-5.674;2023-04-03T03:20:04;6.55;;;0.90;;
72437;SDS011;60444;43.534;-5.674;2023-04-03T03:22:31;4.57;;;0.82;;
72437;SDS011;60444;43.534;-5.674;2023-04-03T03:24:57;3.22;;;0.80;;
72437;SDS011;60444;43.534;-5.674;2023-04-03T03:27:23;6.57;;;1.00;;
72437;SDS011;60444;43.534;-5.674;2023-04-03T03:29:49;4.15;;;0.80;;
72437;SDS011;60444;43.534;-5.674;2023-04-03T03:32:14;4.47;;;0.80;;
72437;SDS011;60444;43.534;-5.674;2023-04-03T03:34:40;8.37;;;1.33;;
72437;SDS011;60444;43.534;-5.674;2023-04-03T03:37:05;5.53;;;1.03;;
72437;SDS011;60444;43.534;-5.674;2023-04-03T03:39:31;3.37;;;0.90;;
72437;SDS011;60444;43.534;-5.674;2023-04-03T03:41:56;6.67;;;1.37;;
72437;SDS011;60444;43.534;-5.674;2023-04-03T03:44:21;3.45;;;0.80;;
72437;SDS011;60444;43.534;-5.674;2023-04-03T03:46:47;4.17;;;0.80;;
72437;SDS011;60444;43.534;-5.674;2023-04-03T03:49:12;4.27;;;0.80;;
72437;SDS011;60444;43.534;-5.674;2023-04-03T03:51:38;4.03;;;0.70;;
72437;SDS011;60444;43.534;-5.674;2023-04-03T03:54:05;3.28;;;0.50;;
72437;SDS011;60444;43.534;-5.674;2023-04-03T03:56:31;4.57;;;0.80;;
72437;SDS011;60444;43.534;-5.674;2023-04-03T03:58:57;6.70;;;0.70;;
72437;SDS011;60444;43.534;-5.674;2023-04-03T04:01:23;5.47;;;0.90;;
72437;SDS011;60444;43.534;-5.674;2023-04-03T04:03:49;4.47;;;0.82;;
72437;SDS011;60444;43.534;-5.674;2023-04-03T04:06:15;5.73;;;0.80;;
72437;SDS011;60444;43.534;-5.674;2023-04-03T04:08:41;4.68;;;0.88;;
72437;SDS011;60444;43.534;-5.674;2023-04-03T04:11:07;3.13;;;0.70;;
72437;SDS011;60444;43.534;-5.674;2023-04-03T04:13:33;4.25;;;0.80;;
72437;SDS011;60444;43.534;-5.674;2023-04-03T04:15:58;3.78;;;0.77;;
72437;SDS011;60444;43.534;-5.674;2023-04-03T04:18:24;3.57;;;0.93;;
72437;SDS011;60444;43.534;-5.674;2023-04-03T04:20:50;4.50;;;0.90;;
72437;SDS011;60444;43.534;-5.674;2023-04-03T04:23:16;5.00;;;0.80;;
72437;SDS011;60444;43.534;-5.674;2023-04-03T04:25:46;5.63;;;1.00;;
72437;SDS011;60444;43.534;-5.674;2023-04-03T04:28:14;5.85;;;1.13;;
72437;SDS011;60444;43.534;-5.674;2023-04-03T04:30:40;5.27;;;0.90;;
72437;SDS011;60444;43.534;-5.674;2023-04-03T04:33:06;6.10;;;1.42;;
72437;SDS011;60444;43.534;-5.674;2023-04-03T04:35:32;6.13;;;1.07;;
72437;SDS011;60444;43.534;-5.674;2023-04-03T04:37:57;7.80;;;1.40;;
72437;SDS011;60444;43.534;-5.674;2023-04-03T04:40:23;7.07;;;0.90;;
72437;SDS011;60444;43.534;-5.674;2023-04-03T04:42:49;4.33;;;1.00;;
72437;SDS011;60444;43.534;-5.674;2023-04-03T04:45:14;5.40;;;0.80;;
72437;SDS011;60444;43.534;-5.674;2023-04-03T04:47:41;6.22;;;0.90;;
72437;SDS011;60444;43.534;-5.674;2023-04-03T04:50:06;4.72;;;0.88;;
72437;SDS011;60444;43.534;-5.674;2023-04-03T04:52:32;5.13;;;1.10;;
72437;SDS011;60444;43.534;-5.674;2023-04-03T04:54:58;5.75;;;0.90;;
72437;SDS011;60444;43.534;-5.674;2023-04-03T04:57:23;4.20;;;1.20;;
72437;SDS011;60444;43.534;-5.674;2023-04-03T04:59:49;4.97;;;0.90;;
72437;SDS011;60444;43.534;-5.674;2023-04-03T05:02:14;5.28;;;0.88;;
72437;SDS011;60444;43.534;-5.674;2023-04-03T05:04:40;3.83;;;0.80;;
72437;SDS011;60444;43.534;-5.674;2023-04-03T05:07:05;4.03;;;1.00;;
72437;SDS011;60444;43.534;-5.674;2023-04-03T05:09:31;3.92;;;0.68;;
72437;SDS011;60444;43.534;-5.674;2023-04-03T05:11:56;3.73;;;0.90;;
72437;SDS011;60444;43.534;-5.674;2023-04-03T05:14:22;3.60;;;0.53;;
72437;SDS011;60444;43.534;-5.674;2023-04-03T05:16:48;4.68;;;1.08;;
72437;SDS011;60444;43.534;-5.674;2023-04-03T05:19:17;6.53;;;1.10;;
72437;SDS011;60444;43.534;-5.674;2023-04-03T05:21:43;4.93;;;1.10;;
72437;SDS011;60444;43.534;-5.674;2023-04-03T05:24:09;6.33;;;1.40;;
72437;SDS011;60444;43.534;-5.674;2023-04-03T05:26:35;5.57;;;1.40;;
72437;SDS011;60444;43.534;-5.674;2023-04-03T05:29:00;7.40;;;2.17;;
72437;SDS011;60444;43.534;-5.674;2023-04-03T05:31:26;4.77;;;1.43;;
72437;SDS011;60444;43.534;-5.674;2023-04-03T05:33:54;4.63;;;1.20;;
72437;SDS011;60444;43.534;-5.674;2023-04-03T05:36:20;6.22;;;1.80;;
72437;SDS011;60444;43.534;-5.674;2023-04-03T05:38:46;6.30;;;1.80;;
72437;SDS011;60444;43.534;-5.674;2023-04-03T05:41:13;6.00;;;1.27;;
72437;SDS011;60444;43.534;-5.674;2023-04-03T05:43:39;6.57;;;1.70;;
72437;SDS011;60444;43.534;-5.674;2023-04-03T05:46:14;5.83;;;1.87;;
72437;SDS011;60444;43.534;-5.674;2023-04-03T05:48:42;6.75;;;1.75;;
72437;SDS011;60444;43.534;-5.674;2023-04-03T05:51:13;8.32;;;3.30;;
72437;SDS011;60444;43.534;-5.674;2023-04-03T05:53:41;7.50;;;1.88;;
72437;SDS011;60444;43.534;-5.674;2023-04-03T05:56:08;7.72;;;2.10;;
72437;SDS011;60444;43.534;-5.674;2023-04-03T05:58:34;5.47;;;1.53;;
72437;SDS011;60444;43.534;-5.674;2023-04-03T06:01:00;6.53;;;1.83;;
72437;SDS011;60444;43.534;-5.674;2023-04-03T06:03:26;6.07;;;2.00;;
72437;SDS011;60444;43.534;-5.674;2023-04-03T06:05:52;6.80;;;1.98;;
72437;SDS011;60444;43.534;-5.674;2023-04-03T06:08:17;9.27;;;2.20;;
72437;SDS011;60444;43.534;-5.674;2023-04-03T06:10:43;8.23;;;2.08;;
72437;SDS011;60444;43.534;-5.674;2023-04-03T06:13:09;5.97;;;2.45;;
72437;SDS011;60444;43.534;-5.674;2023-04-03T06:15:35;8.50;;;2.00;;
72437;SDS011;60444;43.534;-5.674;2023-04-03T06:18:01;8.23;;;2.20;;
72437;SDS011;60444;43.534;-5.674;2023-04-03T06:20:27;4.88;;;1.73;;
72437;SDS011;60444;43.534;-5.674;2023-04-03T06:22:53;6.97;;;2.20;;
72437;SDS011;60444;43.534;-5.674;2023-04-03T06:25:18;8.57;;;2.07;;
72437;SDS011;60444;43.534;-5.674;2023-04-03T06:27:44;8.35;;;2.17;;
72437;SDS011;60444;43.534;-5.674;2023-04-03T06:30:10;6.23;;;2.13;;
72437;SDS011;60444;43.534;-5.674;2023-04-03T06:32:36;6.47;;;1.80;;
72437;SDS011;60444;43.534;-5.674;2023-04-03T06:35:03;5.90;;;2.20;;
72437;SDS011;60444;43.534;-5.674;2023-04-03T06:37:29;7.63;;;2.10;;
72437;SDS011;60444;43.534;-5.674;2023-04-03T06:39:55;6.07;;;1.73;;
72437;SDS011;60444;43.534;-5.674;2023-04-03T06:42:21;7.30;;;1.73;;
72437;SDS011;60444;43.534;-5.674;2023-04-03T06:44:48;9.02;;;2.22;;
72437;SDS011;60444;43.534;-5.674;2023-04-03T06:47:14;7.00;;;1.93;;
72437;SDS011;60444;43.534;-5.674;2023-04-03T06:49:43;5.03;;;1.42;;
72437;SDS011;60444;43.534;-5.674;2023-04-03T06:52:09;8.00;;;1.88;;
72437;SDS011;60444;43.534;-5.674;2023-04-03T06:54:37;7.07;;;1.93;;
72437;SDS011;60444;43.534;-5.674;2023-04-03T06:57:03;7.50;;;1.80;;
72437;SDS011;60444;43.534;-5.674;2023-04-03T06:59:28;7.82;;;2.10;;
72437;SDS011;60444;43.534;-5.674;2023-04-03T07:01:54;7.03;;;2.15;;
72437;SDS011;60444;43.534;-5.674;2023-04-03T07:04:20;6.27;;;1.97;;
72437;SDS011;60444;43.534;-5.674;2023-04-03T07:06:46;5.88;;;1.77;;
72437;SDS011;60444;43.534;-5.674;2023-04-03T07:09:13;6.50;;;1.83;;
72437;SDS011;60444;43.534;-5.674;2023-04-03T07:11:39;9.32;;;2.20;;
72437;SDS011;60444;43.534;-5.674;2023-04-03T07:14:05;8.30;;;2.20;;
72437;SDS011;60444;43.534;-5.674;2023-04-03T07:16:32;6.00;;;1.90;;
72437;SDS011;60444;43.534;-5.674;2023-04-03T07:18:58;5.50;;;1.90;;
72437;SDS011;60444;43.534;-5.674;2023-04-03T07:21:24;6.05;;;1.80;;
72437;SDS011;60444;43.534;-5.674;2023-04-03T07:23:49;7.70;;;1.90;;
72437;SDS011;60444;43.534;-5.674;2023-04-03T07:26:15;5.77;;;2.20;;
72437;SDS011;60444;43.534;-5.674;2023-04-03T07:28:40;6.47;;;2.23;;
72437;SDS011;60444;43.534;-5.674;2023-04-03T07:31:07;6.78;;;2.33;;
72437;SDS011;60444;43.534;-5.674;2023-04-03T07:33:37;6.63;;;1.80;;
72437;SDS011;60444;43.534;-5.674;2023-04-03T07:36:03;6.63;;;2.17;;
72437;SDS011;60444;43.534;-5.674;2023-04-03T07:38:29;7.03;;;2.10;;
72437;SDS011;60444;43.534;-5.674;2023-04-03T07:40:55;5.93;;;1.90;;
72437;SDS011;60444;43.534;-5.674;2023-04-03T07:43:21;7.00;;;1.63;;
72437;SDS011;60444;43.534;-5.674;2023-04-03T07:45:47;7.38;;;2.30;;
72437;SDS011;60444;43.534;-5.674;2023-04-03T07:48:26;8.63;;;2.28;;
72437;SDS011;60444;43.534;-5.674;2023-04-03T07:50:51;6.78;;;2.15;;
72437;SDS011;60444;43.534;-5.674;2023-04-03T07:53:17;7.23;;;1.93;;
72437;SDS011;60444;43.534;-5.674;2023-04-03T07:55:46;6.70;;;1.73;;
72437;SDS011;60444;43.534;-5.674;2023-04-03T07:58:13;11.30;;;1.80;;
72437;SDS011;60444;43.534;-5.674;2023-04-03T08:00:41;11.00;;;2.40;;
72437;SDS011;60444;43.534;-5.674;2023-04-03T08:03:07;8.05;;;2.13;;
72437;SDS011;60444;43.534;-5.674;2023-04-03T08:05:39;8.80;;;1.50;;
72437;SDS011;60444;43.534;-5.674;2023-04-03T08:08:06;7.32;;;1.65;;
72437;SDS011;60444;43.534;-5.674;2023-04-03T08:10:32;5.07;;;1.80;;
72437;SDS011;60444;43.534;-5.674;2023-04-03T08:12:59;7.70;;;1.70;;
72437;SDS011;60444;43.534;-5.674;2023-04-03T08:15:25;8.52;;;1.63;;
72437;SDS011;60444;43.534;-5.674;2023-04-03T08:17:50;6.97;;;1.50;;
72437;SDS011;60444;43.534;-5.674;2023-04-03T08:20:16;7.32;;;1.42;;
72437;SDS011;60444;43.534;-5.674;2023-04-03T08:22:42;5.90;;;1.80;;
72437;SDS011;60444;43.534;-5.674;2023-04-03T08:25:08;6.55;;;1.80;;
72437;SDS011;60444;43.534;-5.674;2023-04-03T08:27:34;4.97;;;1.47;;
72437;SDS011;60444;43.534;-5.674;2023-04-03T08:30:00;12.23;;;1.60;;
72437;SDS011;60444;43.534;-5.674;2023-04-03T08:32:26;7.03;;;1.58;;
72437;SDS011;60444;43.534;-5.674;2023-04-03T08:34:52;5.05;;;1.50;;
72437;SDS011;60444;43.534;-5.674;2023-04-03T08:37:17;6.37;;;1.17;;
72437;SDS011;60444;43.534;-5.674;2023-04-03T08:39:44;6.05;;;1.58;;
72437;SDS011;60444;43.534;-5.674;2023-04-03T08:45:10;6.43;;;1.48;;
72437;SDS011;60444;43.534;-5.674;2023-04-03T08:51:04;7.85;;;1.40;;
72437;SDS011;60444;43.534;-5.674;2023-04-03T08:53:41;6.83;;;1.40;;
72437;SDS011;60444;43.534;-5.674;2023-04-03T08:56:28;8.48;;;1.40;;
72437;SDS011;60444;43.534;-5.674;2023-04-03T08:58:56;8.20;;;1.40;;
72437;SDS011;60444;43.534;-5.674;2023-04-03T09:01:35;9.88;;;1.08;;
72437;SDS011;60444;43.534;-5.674;2023-04-03T09:04:03;7.15;;;1.23;;
72437;SDS011;60444;43.534;-5.674;2023-04-03T09:06:37;7.60;;;1.30;;
72437;SDS011;60444;43.534;-5.674;2023-04-03T09:11:56;7.55;;;1.40;;
72437;SDS011;60444;43.534;-5.674;2023-04-03T09:14:49;6.93;;;1.25;;
72437;SDS011;60444;43.534;-5.674;2023-04-03T09:17:22;6.25;;;1.00;;
72437;SDS011;60444;43.534;-5.674;2023-04-03T09:22:54;5.45;;;1.00;;
72437;SDS011;60444;43.534;-5.674;2023-04-03T09:25:31;5.38;;;1.20;;
72437;SDS011;60444;43.534;-5.674;2023-04-03T09:28:00;5.63;;;1.20;;
72437;SDS011;60444;43.534;-5.674;2023-04-03T09:30:27;6.72;;;1.20;;
72437;SDS011;60444;43.534;-5.674;2023-04-03T09:32:55;6.43;;;1.07;;
72437;SDS011;60444;43.534;-5.674;2023-04-03T09:35:25;7.07;;;1.10;;
72437;SDS011;60444;43.534;-5.674;2023-04-03T09:38:14;7.00;;;1.25;;
72437;SDS011;60444;43.534;-5.674;2023-04-03T09:40:38;10.68;;;1.13;;
72437;SDS011;60444;43.534;-5.674;2023-04-03T09:45:54;3.53;;;0.83;;
72437;SDS011;60444;43.534;-5.674;2023-04-03T09:48:22;6.28;;;1.23;;
72437;SDS011;60444;43.534;-5.674;2023-04-03T09:53:26;9.43;;;1.30;;
72437;SDS011;60444;43.534;-5.674;2023-04-03T09:55:55;6.63;;;1.42;;
72437;SDS011;60444;43.534;-5.674;2023-04-03T09:59:05;5.90;;;1.42;;
72437;SDS011;60444;43.534;-5.674;2023-04-03T10:01:38;8.63;;;1.08;;
72437;SDS011;60444;43.534;-5.674;2023-04-03T10:04:07;7.27;;;1.10;;
72437;SDS011;60444;43.534;-5.674;2023-04-03T10:06:35;8.90;;;1.10;;
72437;SDS011;60444;43.534;-5.674;2023-04-03T10:09:04;6.30;;;0.70;;
72437;SDS011;60444;43.534;-5.674;2023-04-03T10:14:35;4.40;;;1.13;;
72437;SDS011;60444;43.534;-5.674;2023-04-03T10:19:46;6.95;;;0.98;;
72437;SDS011;60444;43.534;-5.674;2023-04-03T10:27:57;6.88;;;1.48;;
72437;SDS011;60444;43.534;-5.674;2023-04-03T10:30:38;9.23;;;1.00;;
72437;SDS011;60444;43.534;-5.674;2023-04-03T10:52:32;7.15;;;1.60;;
72437;SDS011;60444;43.534;-5.674;2023-04-03T10:57:47;9.53;;;1.33;;
72437;SDS011;60444;43.534;-5.674;2023-04-03T11:00:16;8.77;;;1.67;;
72437;SDS011;60444;43.534;-5.674;2023-04-03T11:08:08;9.95;;;1.30;;
72437;SDS011;60444;43.534;-5.674;2023-04-03T11:10:42;7.07;;;1.10;;
72437;SDS011;60444;43.534;-5.674;2023-04-03T11:13:46;9.85;;;1.13;;
72437;SDS011;60444;43.534;-5.674;2023-04-03T11:16:24;6.88;;;0.93;;
72437;SDS011;60444;43.534;-5.674;2023-04-03T11:22:00;11.27;;;2.08;;
72437;SDS011;60444;43.534;-5.674;2023-04-03T11:24:33;10.03;;;1.20;;
72437;SDS011;60444;43.534;-5.674;2023-04-03T11:27:05;8.73;;;1.38;;
72437;SDS011;60444;43.534;-5.674;2023-04-03T11:29:38;8.88;;;1.42;;
72437;SDS011;60444;43.534;-5.674;2023-04-03T11:34:49;7.53;;;1.98;;
72437;SDS011;60444;43.534;-5.674;2023-04-03T11:39:50;7.20;;;1.10;;
72437;SDS011;60444;43.534;-5.674;2023-04-03T11:47:53;5.78;;;1.02;;
72437;SDS011;60444;43.534;-5.674;2023-04-03T11:50:40;8.13;;;0.90;;
72437;SDS011;60444;43.534;-5.674;2023-04-03T11:55:44;10.07;;;1.40;;
72437;SDS011;60444;43.534;-5.674;2023-04-03T11:58:14;7.20;;;1.00;;
72437;SDS011;60444;43.534;-5.674;2023-04-03T12:13:38;8.20;;;1.10;;
72437;SDS011;60444;43.534;-5.674;2023-04-03T12:16:05;12.07;;;1.13;;
72437;SDS011;60444;43.534;-5.674;2023-04-03T12:24:03;7.22;;;1.00;;
72437;SDS011;60444;43.534;-5.674;2023-04-03T12:29:15;5.80;;;1.43;;
72437;SDS011;60444;43.534;-5.674;2023-04-03T12:32:03;6.45;;;0.93;;
72437;SDS011;60444;43.534;-5.674;2023-04-03T12:40:50;10.13;;;1.50;;
72437;SDS011;60444;43.534;-5.674;2023-04-03T12:48:46;8.37;;;1.00;;
72437;SDS011;60444;43.534;-5.674;2023-04-03T12:51:17;5.88;;;0.65;;
72437;SDS011;60444;43.534;-5.674;2023-04-03T12:53:45;4.43;;;0.80;;
72437;SDS011;60444;43.534;-5.674;2023-04-03T12:56:23;9.50;;;1.40;;
72437;SDS011;60444;43.534;-5.674;2023-04-03T12:58:51;9.88;;;1.58;;
72437;SDS011;60444;43.534;-5.674;2023-04-03T13:01:20;5.93;;;1.23;;
72437;SDS011;60444;43.534;-5.674;2023-04-03T13:03:49;7.85;;;0.98;;
72437;SDS011;60444;43.534;-5.674;2023-04-03T13:06:29;9.95;;;1.58;;
72437;SDS011;60444;43.534;-5.674;2023-04-03T13:09:00;7.25;;;1.25;;
72437;SDS011;60444;43.534;-5.674;2023-04-03T13:11:33;8.10;;;1.38;;
72437;SDS011;60444;43.534;-5.674;2023-04-03T13:14:04;7.93;;;0.80;;
72437;SDS011;60444;43.534;-5.674;2023-04-03T13:16:39;9.70;;;1.27;;
72437;SDS011;60444;43.534;-5.674;2023-04-03T13:19:06;6.95;;;2.00;;
72437;SDS011;60444;43.534;-5.674;2023-04-03T13:21:40;10.70;;;1.40;;
72437;SDS011;60444;43.534;-5.674;2023-04-03T13:24:06;7.95;;;1.45;;
72437;SDS011;60444;43.534;-5.674;2023-04-03T13:26:34;10.23;;;1.27;;
72437;SDS011;60444;43.534;-5.674;2023-04-03T13:29:04;7.68;;;1.02;;
72437;SDS011;60444;43.534;-5.674;2023-04-03T13:31:33;6.95;;;1.38;;
72437;SDS011;60444;43.534;-5.674;2023-04-03T13:36:41;10.20;;;1.10;;
72437;SDS011;60444;43.534;-5.674;2023-04-03T13:41:52;6.80;;;1.00;;
72437;SDS011;60444;43.534;-5.674;2023-04-03T13:46:52;9.30;;;1.40;;
72437;SDS011;60444;43.534;-5.674;2023-04-03T13:49:40;8.48;;;1.58;;
72437;SDS011;60444;43.534;-5.674;2023-04-03T13:54:49;7.07;;;1.02;;
72437;SDS011;60444;43.534;-5.674;2023-04-03T13:57:19;9.73;;;1.42;;
72437;SDS011;60444;43.534;-5.674;2023-04-03T13:59:45;8.00;;;1.30;;
72437;SDS011;60444;43.534;-5.674;2023-04-03T14:04:48;7.28;;;1.15;;
72437;SDS011;60444;43.534;-5.674;2023-04-03T14:07:14;6.85;;;1.10;;
72437;SDS011;60444;43.534;-5.674;2023-04-03T14:09:41;7.33;;;1.30;;
72437;SDS011;60444;43.534;-5.674;2023-04-03T14:12:11;8.60;;;0.88;;
72437;SDS011;60444;43.534;-5.674;2023-04-03T14:15:02;5.90;;;1.17;;
72437;SDS011;60444;43.534;-5.674;2023-04-03T14:17:30;6.85;;;0.90;;
72437;SDS011;60444;43.534;-5.674;2023-04-03T14:19:56;6.30;;;0.83;;
72437;SDS011;60444;43.534;-5.674;2023-04-03T14:22:27;7.85;;;1.42;;
72437;SDS011;60444;43.534;-5.674;2023-04-03T14:24:55;9.25;;;1.55;;
72437;SDS011;60444;43.534;-5.674;2023-04-03T14:27:26;8.90;;;1.30;;
72437;SDS011;60444;43.534;-5.674;2023-04-03T14:29:55;9.77;;;1.57;;
72437;SDS011;60444;43.534;-5.674;2023-04-03T14:32:24;5.90;;;1.10;;
72437;SDS011;60444;43.534;-5.674;2023-04-03T14:34:50;9.23;;;1.08;;
72437;SDS011;60444;43.534;-5.674;2023-04-03T14:37:18;8.60;;;1.13;;
72437;SDS011;60444;43.534;-5.674;2023-04-03T14:39:46;6.32;;;1.17;;
72437;SDS011;60444;43.534;-5.674;2023-04-03T14:42:13;8.57;;;1.20;;
72437;SDS011;60444;43.534;-5.674;2023-04-03T14:44:44;8.57;;;1.67;;
72437;SDS011;60444;43.534;-5.674;2023-04-03T14:47:14;7.85;;;1.48;;
72437;SDS011;60444;43.534;-5.674;2023-04-03T14:49:48;11.43;;;1.55;;
72437;SDS011;60444;43.534;-5.674;2023-04-03T14:52:18;13.53;;;1.50;;
72437;SDS011;60444;43.534;-5.674;2023-04-03T14:54:49;8.77;;;1.65;;
72437;SDS011;60444;43.534;-5.674;2023-04-03T14:57:15;7.30;;;1.00;;
72437;SDS011;60444;43.534;-5.674;2023-04-03T14:59:42;10.30;;;1.10;;
72437;SDS011;60444;43.534;-5.674;2023-04-03T15:05:03;6.33;;;1.33;;
72437;SDS011;60444;43.534;-5.674;2023-04-03T15:07:33;8.73;;;1.25;;
72437;SDS011;60444;43.534;-5.674;2023-04-03T15:12:50;6.88;;;0.73;;
72437;SDS011;60444;43.534;-5.674;2023-04-03T15:15:16;5.77;;;1.33;;
72437;SDS011;60444;43.534;-5.674;2023-04-03T15:17:45;7.13;;;0.97;;
72437;SDS011;60444;43.534;-5.674;2023-04-03T15:20:17;5.75;;;1.45;;
72437;SDS011;60444;43.534;-5.674;2023-04-03T15:22:45;8.52;;;1.23;;
72437;SDS011;60444;43.534;-5.674;2023-04-03T15:25:11;6.93;;;1.02;;
72437;SDS011;60444;43.534;-5.674;2023-04-03T15:27:36;7.03;;;1.33;;
72437;SDS011;60444;43.534;-5.674;2023-04-03T15:30:03;5.63;;;1.00;;
72437;SDS011;60444;43.534;-5.674;2023-04-03T15:32:30;6.85;;;1.08;;
72437;SDS011;60444;43.534;-5.674;2023-04-03T15:34:56;7.77;;;1.17;;
72437;SDS011;60444;43.534;-5.674;2023-04-03T15:37:21;9.70;;;1.13;;
72437;SDS011;60444;43.534;-5.674;2023-04-03T15:39:47;6.07;;;1.00;;
72437;SDS011;60444;43.534;-5.674;2023-04-03T15:42:12;5.97;;;1.20;;
72437;SDS011;60444;43.534;-5.674;2023-04-03T15:44:38;6.07;;;0.90;;
72437;SDS011;60444;43.534;-5.674;2023-04-03T15:47:03;7.17;;;1.30;;
72437;SDS011;60444;43.534;-5.674;2023-04-03T15:49:29;6.72;;;1.40;;
72437;SDS011;60444;43.534;-5.674;2023-04-03T15:51:58;7.00;;;1.23;;
72437;SDS011;60444;43.534;-5.674;2023-04-03T15:54:24;7.53;;;1.05;;
72437;SDS011;60444;43.534;-5.674;2023-04-03T15:56:50;6.93;;;1.42;;
72437;SDS011;60444;43.534;-5.674;2023-04-03T15:59:16;6.93;;;1.17;;
72437;SDS011;60444;43.534;-5.674;2023-04-03T16:01:42;8.07;;;1.20;;
72437;SDS011;60444;43.534;-5.674;2023-04-03T16:04:08;6.75;;;1.48;;
72437;SDS011;60444;43.534;-5.674;2023-04-03T16:06:35;9.00;;;1.40;;
72437;SDS011;60444;43.534;-5.674;2023-04-03T16:09:01;7.47;;;1.27;;
72437;SDS011;60444;43.534;-5.674;2023-04-03T16:11:27;5.32;;;1.20;;
72437;SDS011;60444;43.534;-5.674;2023-04-03T16:13:53;5.90;;;1.00;;
72437;SDS011;60444;43.534;-5.674;2023-04-03T16:16:19;7.22;;;1.00;;
72437;SDS011;60444;43.534;-5.674;2023-04-03T16:18:45;7.90;;;0.93;;
72437;SDS011;60444;43.534;-5.674;2023-04-03T16:21:12;4.03;;;0.93;;
72437;SDS011;60444;43.534;-5.674;2023-04-03T16:23:39;6.28;;;1.00;;
72437;SDS011;60444;43.534;-5.674;2023-04-03T16:26:06;4.13;;;0.82;;
72437;SDS011;60444;43.534;-5.674;2023-04-03T16:28:32;8.45;;;1.17;;
72437;SDS011;60444;43.534;-5.674;2023-04-03T16:30:57;7.10;;;1.20;;
72437;SDS011;60444;43.534;-5.674;2023-04-03T16:33:24;8.68;;;1.10;;
72437;SDS011;60444;43.534;-5.674;2023-04-03T16:35:51;6.47;;;1.25;;
72437;SDS011;60444;43.534;-5.674;2023-04-03T16:38:17;6.50;;;1.50;;
72437;SDS011;60444;43.534;-5.674;2023-04-03T16:40:44;6.97;;;1.23;;
72437;SDS011;60444;43.534;-5.674;2023-04-03T16:43:10;5.50;;;1.45;;
72437;SDS011;60444;43.534;-5.674;2023-04-03T16:45:36;7.93;;;1.13;;
72437;SDS011;60444;43.534;-5.674;2023-04-03T16:48:01;7.90;;;1.13;;